Time;durP1;ratioP1;P1;durP2;ratioP2;P2;SDS_P1;SDS_P2;PMS_P1;PMS_P2;Temp;Humidity;BMP_temperature;BMP_pressure;BME280_temperature;BME280_humidity;BME280_pressure;Samples;Min_cycle;Max_cycle;Signal;HPM_P1;HPM_P2
2021/10/29 00:00:06;;;;;;;44.08;23.17;;;;;;;7.87;72.22;100744.94;5051260;28;20021;-48
2021/10/29 00:02:31;;;;;;;40.22;22.52;;;;;;;7.57;73.68;100741.84;5050618;28;20021;-48
2021/10/29 00:04:58;;;;;;;43.83;23.42;;;;;;;7.32;73.98;100738.25;5051038;28;20040;-47
2021/10/29 00:07:23;;;;;;;38.72;22.30;;;;;;;7.36;74.51;100736.94;5051061;28;20025;-49
2021/10/29 00:09:49;;;;;;;40.25;22.38;;;;;;;7.19;75.08;100739.50;5050840;28;20496;-48
2021/10/29 00:12:15;;;;;;;42.72;24.15;;;;;;;7.23;74.71;100734.72;5050657;28;20021;-50
2021/10/29 00:14:41;;;;;;;50.42;25.15;;;;;;;7.46;73.89;100734.16;5050818;28;20103;-49
2021/10/29 00:17:06;;;;;;;43.78;23.70;;;;;;;7.13;74.69;100729.53;5051161;28;20024;-48
2021/10/29 00:19:32;;;;;;;42.65;24.42;;;;;;;6.98;76.00;100726.63;5050421;28;20039;-51
2021/10/29 00:21:57;;;;;;;41.13;22.17;;;;;;;7.14;75.62;100730.38;5050732;28;20024;-51
2021/10/29 00:24:23;;;;;;;40.45;23.15;;;;;;;7.01;75.88;100728.16;5050803;28;20075;-51
2021/10/29 00:26:48;;;;;;;42.40;23.00;;;;;;;7.24;74.94;100731.09;5050797;28;20124;-51
2021/10/29 00:29:14;;;;;;;40.15;23.10;;;;;;;7.27;74.52;100733.41;5051038;28;20420;-51
2021/10/29 00:31:39;;;;;;;44.95;23.48;;;;;;;7.07;75.16;100732.00;5050506;28;20027;-51
2021/10/29 00:34:05;;;;;;;42.92;23.35;;;;;;;6.95;75.55;100734.91;5050824;28;20053;-50
2021/10/29 00:36:30;;;;;;;40.47;22.83;;;;;;;6.84;75.87;100729.88;5050688;28;20021;-51
2021/10/29 00:38:57;;;;;;;44.60;23.60;;;;;;;6.91;75.71;100733.56;5050727;28;20071;-48
2021/10/29 00:41:22;;;;;;;42.03;24.25;;;;;;;6.57;77.21;100749.34;5050710;28;20442;-50
2021/10/29 00:43:48;;;;;;;43.05;23.27;;;;;;;6.60;77.11;100743.72;5050239;28;20025;-49
2021/10/29 00:46:13;;;;;;;45.60;23.55;;;;;;;6.52;76.91;100746.31;5050277;28;20465;-49
2021/10/29 00:48:39;;;;;;;43.05;22.15;;;;;;;6.69;76.22;100740.16;5050749;28;20086;-48
2021/10/29 00:51:04;;;;;;;37.17;20.73;;;;;;;6.57;76.27;100738.75;5050244;28;20078;-49
2021/10/29 00:53:31;;;;;;;40.15;20.98;;;;;;;6.61;76.48;100732.19;5050222;28;20048;-50
2021/10/29 00:55:56;;;;;;;38.63;20.40;;;;;;;6.70;75.83;100730.41;5050235;28;20123;-48
2021/10/29 00:58:22;;;;;;;35.70;20.77;;;;;;;6.88;74.91;100723.28;5050318;28;20025;-49
2021/10/29 01:00:47;;;;;;;37.85;21.02;;;;;;;7.05;73.99;100722.38;5050280;28;20041;-48
2021/10/29 01:03:13;;;;;;;34.10;21.00;;;;;;;6.74;74.82;100718.53;5050058;28;20380;-50
2021/10/29 01:05:39;;;;;;;40.05;21.45;;;;;;;6.71;75.27;100705.63;5050029;28;20036;-50
2021/10/29 01:08:05;;;;;;;40.25;21.63;;;;;;;6.72;75.24;100709.91;5050249;28;20040;-50
2021/10/29 01:10:31;;;;;;;37.10;20.92;;;;;;;6.73;75.30;100707.13;5049744;28;20037;-48
2021/10/29 01:12:57;;;;;;;36.70;21.48;;;;;;;6.75;74.58;100707.81;5048652;28;20033;-48
2021/10/29 01:15:22;;;;;;;39.83;21.27;;;;;;;6.80;75.24;100712.66;5049871;28;20033;-48
2021/10/29 01:17:48;;;;;;;37.35;20.55;;;;;;;6.68;75.35;100709.41;5050057;28;20025;-48
2021/10/29 01:20:18;;;;;;;37.28;20.35;;;;;;;6.50;75.76;100701.50;5049951;28;20052;-47
2021/10/29 01:22:43;;;;;;;36.80;20.77;;;;;;;6.40;75.78;100706.06;5049905;28;20118;-49
2021/10/29 01:25:10;;;;;;;37.17;20.05;;;;;;;6.21;77.17;100702.59;5049762;28;20035;-48
2021/10/29 01:27:35;;;;;;;34.83;18.33;;;;;;;6.20;77.57;100705.38;5049958;28;20039;-48
2021/10/29 01:30:01;;;;;;;35.83;19.52;;;;;;;5.92;78.66;100701.94;5050012;28;20033;-47
2021/10/29 01:32:26;;;;;;;34.20;19.95;;;;;;;5.76;78.80;100706.06;5049770;28;20025;-48
2021/10/29 01:34:52;;;;;;;37.67;19.20;;;;;;;5.78;79.45;100706.75;5050031;28;20069;-48
2021/10/29 01:37:17;;;;;;;35.58;18.88;;;;;;;6.04;78.10;100714.81;5049908;28;20032;-48
2021/10/29 01:39:43;;;;;;;32.15;18.95;;;;;;;6.13;78.02;100705.16;5049980;28;20489;-47
2021/10/29 01:42:09;;;;;;;35.75;18.52;;;;;;;6.12;77.49;100708.78;5049571;28;20017;-47
2021/10/29 01:44:34;;;;;;;33.03;18.92;;;;;;;5.83;78.79;100704.50;5049871;28;20079;-48
2021/10/29 01:46:59;;;;;;;39.92;19.90;;;;;;;5.74;78.88;100704.56;5049699;28;20028;-49
2021/10/29 01:49:25;;;;;;;40.45;21.83;;;;;;;5.81;79.35;100703.81;5049445;28;20644;-48
2021/10/29 01:51:50;;;;;;;41.72;23.58;;;;;;;5.63;79.61;100710.88;5051960;28;20017;-48
2021/10/29 01:54:16;;;;;;;50.00;25.15;;;;;;;5.72;78.82;100701.25;5053457;28;20035;-47
2021/10/29 01:56:42;;;;;;;51.55;25.95;;;;;;;5.92;78.45;100705.44;5053655;28;20032;-48
2021/10/29 01:59:07;;;;;;;49.10;25.83;;;;;;;5.85;77.70;100704.34;5053215;28;20036;-48
2021/10/29 02:01:33;;;;;;;51.95;26.75;;;;;;;5.82;78.29;100704.66;5053276;28;20017;-48
2021/10/29 02:03:58;;;;;;;49.33;26.00;;;;;;;5.85;77.57;100705.19;5053140;28;20136;-48
2021/10/29 02:06:24;;;;;;;47.28;25.95;;;;;;;5.70;78.31;100713.78;5053180;28;20108;-49
2021/10/29 02:08:50;;;;;;;49.83;26.67;;;;;;;5.56;78.78;100709.78;5052913;28;20021;-48
2021/10/29 02:11:16;;;;;;;43.03;24.27;;;;;;;5.73;79.07;100714.31;5053189;28;20469;-48
2021/10/29 02:13:41;;;;;;;44.00;25.83;;;;;;;5.76;79.08;100708.72;5053187;28;20025;-48
2021/10/29 02:16:07;;;;;;;45.97;25.52;;;;;;;5.70;78.77;100709.31;5053107;28;20017;-47
2021/10/29 02:18:32;;;;;;;46.28;25.38;;;;;;;5.92;77.31;100702.78;5053245;28;20112;-47
2021/10/29 02:20:58;;;;;;;45.15;25.02;;;;;;;5.87;77.66;100702.41;5053065;28;20035;-50
2021/10/29 02:23:23;;;;;;;46.50;24.92;;;;;;;6.00;76.95;100694.13;5052867;28;20021;-47
2021/10/29 02:25:49;;;;;;;47.20;25.38;;;;;;;5.82;77.24;100702.00;5051916;28;20025;-47
2021/10/29 02:28:16;;;;;;;44.75;24.25;;;;;;;5.80;77.43;100699.50;5052968;28;20434;-47
2021/10/29 02:30:42;;;;;;;41.67;23.52;;;;;;;5.78;77.25;100696.19;5052509;28;20024;-48
2021/10/29 02:33:08;;;;;;;38.72;22.60;;;;;;;5.90;77.53;100690.69;5052720;28;20049;-47
2021/10/29 02:35:34;;;;;;;40.83;22.73;;;;;;;6.04;76.98;100692.84;5052835;28;20029;-47
2021/10/29 02:37:59;;;;;;;39.25;22.58;;;;;;;5.98;77.30;100686.38;5052654;28;20029;-50
2021/10/29 02:40:24;;;;;;;41.45;23.05;;;;;;;5.92;77.33;100680.78;5052514;28;20021;-47
2021/10/29 02:42:50;;;;;;;41.25;21.83;;;;;;;5.77;77.30;100689.25;5052003;28;20591;-49
2021/10/29 02:45:15;;;;;;;47.58;24.70;;;;;;;5.77;76.82;100691.03;5052355;28;20029;-48
2021/10/29 02:47:46;;;;;;;44.40;24.25;;;;;;;5.82;76.81;100691.44;5052095;28;20379;-47
2021/10/29 02:50:12;;;;;;;40.50;23.85;;;;;;;5.62;77.19;100690.75;5052082;28;20037;-48
2021/10/29 02:52:37;;;;;;;40.47;22.52;;;;;;;5.47;77.91;100688.59;5052099;28;20347;-48
2021/10/29 02:55:03;;;;;;;40.25;22.38;;;;;;;5.62;77.34;100696.03;5052353;28;20048;-48
2021/10/29 02:57:29;;;;;;;40.20;22.30;;;;;;;5.81;77.01;100701.19;5052340;28;20021;-49
2021/10/29 02:59:54;;;;;;;37.88;21.77;;;;;;;5.79;77.17;100703.16;5052411;28;20059;-49
2021/10/29 03:02:19;;;;;;;36.47;19.42;;;;;;;5.75;76.92;100698.28;5051106;28;20581;-48
2021/10/29 03:04:45;;;;;;;34.58;19.95;;;;;;;5.67;77.87;100704.31;5052223;28;20028;-49
2021/10/29 03:07:10;;;;;;;35.30;20.50;;;;;;;5.79;77.51;100697.03;5052422;28;20082;-49
2021/10/29 03:09:36;;;;;;;35.00;18.80;;;;;;;5.84;76.70;100706.16;5052296;28;20078;-49
2021/10/29 03:12:01;;;;;;;33.65;18.42;;;;;;;5.69;77.69;100707.63;5052045;28;20021;-49
2021/10/29 03:14:27;;;;;;;33.15;19.15;;;;;;;5.66;77.91;100705.31;5050177;28;20021;-51
2021/10/29 03:16:53;;;;;;;35.85;18.65;;;;;;;5.74;77.05;100700.09;5051888;28;20036;-48
2021/10/29 03:19:19;;;;;;;33.65;18.30;;;;;;;5.51;77.45;100699.69;5052054;28;20025;-49
2021/10/29 03:21:44;;;;;;;30.75;16.50;;;;;;;5.16;78.54;100705.66;5051272;28;20115;-49
2021/10/29 03:24:09;;;;;;;28.85;15.98;;;;;;;5.31;78.62;100709.50;5051664;28;20407;-51
2021/10/29 03:26:35;;;;;;;29.30;15.30;;;;;;;5.27;79.15;100708.13;5051745;28;20492;-51
2021/10/29 03:29:00;;;;;;;26.77;15.98;;;;;;;5.26;78.75;100699.38;5051521;28;20028;-52
2021/10/29 03:31:26;;;;;;;30.85;16.55;;;;;;;5.47;77.50;100706.25;5051706;28;20032;-50
2021/10/29 03:33:52;;;;;;;27.98;16.15;;;;;;;5.47;77.83;100709.72;5051481;28;20508;-48
2021/10/29 03:36:17;;;;;;;29.00;15.27;;;;;;;5.40;78.05;100718.34;5050686;28;20024;-50
2021/10/29 03:41:16;;;;;;;29.58;16.20;;;;;;;5.35;78.87;100715.31;5051234;28;20397;-50
2021/10/29 03:46:27;;;;;;;79.75;36.85;;;;;;;5.42;77.83;100724.31;5050071;28;20519;-50
2021/10/29 03:51:37;;;;;;;27.92;14.85;;;;;;;5.90;77.66;100714.47;5050744;28;20033;-50
2021/10/29 03:54:06;;;;;;;30.65;14.80;;;;;;;5.61;77.09;100713.66;5050685;28;20024;-50
2021/10/29 03:56:41;;;;;;;27.73;14.48;;;;;;;5.50;78.96;100713.84;5050850;28;20118;-51
2021/10/29 03:59:06;;;;;;;25.70;13.98;;;;;;;5.54;78.34;100706.47;5050673;28;20035;-48
2021/10/29 04:01:33;;;;;;;25.30;14.00;;;;;;;5.56;78.72;100701.88;5050469;28;20021;-49
2021/10/29 04:03:59;;;;;;;23.73;13.80;;;;;;;5.31;78.60;100706.84;5050505;28;20044;-48
2021/10/29 04:06:24;;;;;;;24.90;14.25;;;;;;;5.36;79.54;100709.91;5050395;28;20485;-49
2021/10/29 04:08:50;;;;;;;26.10;14.65;;;;;;;5.51;78.15;100699.69;5052172;28;20021;-37
2021/10/29 04:11:20;;;;;;;24.27;14.45;;;;;;;5.48;80.37;100700.81;5070450;28;20507;-37
2021/10/29 04:13:46;;;;;;;27.55;15.10;;;;;;;5.49;78.77;100697.19;5070106;28;20112;-37
2021/10/29 04:16:11;;;;;;;25.50;15.10;;;;;;;5.55;77.74;100702.88;5070561;28;20033;-37
2021/10/29 04:18:38;;;;;;;29.90;15.27;;;;;;;5.48;78.17;100702.59;5070547;28;20024;-37
2021/10/29 04:21:03;;;;;;;26.35;15.50;;;;;;;5.44;78.56;100698.59;5070594;28;20032;-37
2021/10/29 04:23:29;;;;;;;33.30;17.23;;;;;;;5.38;78.89;100694.75;5070531;28;20103;-37
2021/10/29 04:25:55;;;;;;;27.95;15.75;;;;;;;5.67;78.11;100699.88;5069907;28;20665;-52
2021/10/29 04:28:20;;;;;;;30.02;16.73;;;;;;;6.46;83.98;100694.88;5070007;28;20178;-53
2021/10/29 04:30:46;;;;;;;25.60;15.18;;;;;;;6.60;79.91;100696.13;5069957;28;20421;-50
2021/10/29 04:33:12;;;;;;;29.75;14.68;;;;;;;6.78;76.74;100694.28;5062270;28;20134;-51
2021/10/29 04:35:39;;;;;;;26.42;15.20;;;;;;;7.09;71.75;100683.19;5035614;28;20029;-50
2021/10/29 04:38:05;;;;;;;26.77;14.60;;;;;;;7.21;73.74;100689.84;5049847;28;20025;-50
2021/10/29 04:40:30;;;;;;;25.77;14.23;;;;;;;7.49;72.21;100686.19;5035747;28;20075;-50
2021/10/29 04:42:56;;;;;;;33.60;18.80;;;;;;;7.20;71.33;100687.41;5029496;28;20041;-51
2021/10/29 04:45:21;;;;;;;56.05;28.25;;;;;;;7.36;69.88;100683.97;5028710;28;20018;-50
2021/10/29 04:47:47;;;;;;;109.80;47.22;;;;;;;7.42;69.86;100685.97;5028205;28;20029;-52
2021/10/29 04:50:12;;;;;;;36.85;17.63;;;;;;;7.74;71.28;100695.84;5027066;28;20555;-50
2021/10/29 04:52:38;;;;;;;26.48;14.32;;;;;;;7.81;69.42;100693.41;5027342;28;20049;-49
2021/10/29 04:55:04;;;;;;;21.83;13.00;;;;;;;7.83;67.51;100694.88;5027491;28;20040;-51
2021/10/29 04:57:29;;;;;;;23.90;13.38;;;;;;;7.43;68.46;100691.13;5027136;28;20409;-53
2021/10/29 04:59:57;;;;;;;21.58;13.00;;;;;;;7.67;69.25;100694.84;5025840;28;20025;-52
2021/10/29 05:02:22;;;;;;;25.65;13.07;;;;;;;7.99;69.23;100703.88;5059372;28;20100;-51
2021/10/29 05:04:48;;;;;;;21.52;12.55;;;;;;;8.36;67.51;100702.59;5027464;28;20031;-51
2021/10/29 05:07:13;;;;;;;19.75;12.65;;;;;;;8.18;64.23;100697.44;5027189;28;20029;-51
2021/10/29 05:09:39;;;;;;;64.03;31.88;;;;;;;7.59;66.37;100697.47;5035018;28;20029;-51
2021/10/29 05:12:04;;;;;;;74.25;32.47;;;;;;;6.94;68.91;100704.13;5047565;28;20021;-50
2021/10/29 05:14:30;;;;;;;23.20;13.00;;;;;;;6.51;71.45;100710.25;5048403;28;20017;-50
2021/10/29 05:16:55;;;;;;;26.55;13.57;;;;;;;6.47;72.07;100712.38;5049320;28;20025;-48
2021/10/29 05:19:21;;;;;;;24.17;13.77;;;;;;;6.37;72.41;100714.28;5049530;28;20421;-49
2021/10/29 05:21:46;;;;;;;20.95;13.48;;;;;;;6.52;71.98;100720.69;5048058;28;20099;-51
2021/10/29 05:24:12;;;;;;;25.92;13.75;;;;;;;6.46;72.69;100723.97;5048858;28;20635;-51
2021/10/29 05:26:37;;;;;;;30.17;18.90;;;;;;;6.46;72.31;100711.56;5051132;28;20125;-50
2021/10/29 05:29:04;;;;;;;25.77;15.13;;;;;;;6.75;71.36;100725.50;5053213;28;20029;-49
2021/10/29 05:31:30;;;;;;;28.17;13.73;;;;;;;6.88;71.25;100723.28;5053369;28;20536;-50
2021/10/29 05:33:56;;;;;;;23.52;13.48;;;;;;;7.00;72.90;100735.25;5052703;28;20040;-51
2021/10/29 05:36:21;;;;;;;20.45;12.18;;;;;;;8.20;70.22;100730.72;5053142;28;20495;-51
2021/10/29 05:38:47;;;;;;;24.10;12.80;;;;;;;7.90;68.46;100728.69;5052833;28;20036;-51
2021/10/29 05:41:12;;;;;;;22.25;12.15;;;;;;;7.79;68.36;100727.19;5052677;28;20009;-52
2021/10/29 05:43:38;;;;;;;21.73;12.15;;;;;;;7.80;67.86;100720.88;5052583;28;20037;-49
2021/10/29 05:46:03;;;;;;;17.33;11.18;;;;;;;8.13;67.35;100732.41;5051324;28;20107;-50
2021/10/29 05:48:29;;;;;;;22.35;12.32;;;;;;;8.22;66.62;100734.06;5052908;28;20028;-51
2021/10/29 05:50:55;;;;;;;24.65;12.45;;;;;;;8.42;65.76;100736.44;5052653;28;20032;-48
2021/10/29 05:55:55;;;;;;;21.60;12.25;;;;;;;8.73;65.18;100741.91;5052530;28;20056;-51
2021/10/29 05:58:20;;;;;;;60.88;33.17;;;;;;;8.95;64.17;100744.88;5052751;28;20392;-50
2021/10/29 06:00:46;;;;;;;31.65;17.08;;;;;;;9.17;63.85;100744.13;5053049;28;20027;-50
2021/10/29 06:03:12;;;;;;;21.58;12.57;;;;;;;9.64;62.55;100750.47;5052703;28;20043;-51
2021/10/29 06:05:38;;;;;;;21.30;12.35;;;;;;;9.93;60.66;100749.00;5052735;28;20513;-49
2021/10/29 06:08:04;;;;;;;22.02;12.45;;;;;;;10.23;60.22;100754.50;5052523;28;20036;-52
2021/10/29 06:10:29;;;;;;;23.60;12.60;;;;;;;10.44;59.43;100764.53;5051126;28;20108;-49
2021/10/29 06:12:54;;;;;;;22.98;11.85;;;;;;;10.59;58.12;100754.75;5052221;28;20060;-49
2021/10/29 06:15:20;;;;;;;38.08;21.88;;;;;;;10.76;57.12;100760.78;5052220;28;20503;-49
2021/10/29 06:17:46;;;;;;;33.15;19.13;;;;;;;10.54;57.42;100771.25;5052479;28;20025;-51
2021/10/29 06:20:12;;;;;;;19.85;11.05;;;;;;;10.69;57.24;100757.16;5052492;28;20490;-53
2021/10/29 06:22:40;;;;;;;15.32;10.02;;;;;;;10.81;56.83;100757.56;5050982;28;20033;-52
2021/10/29 06:25:13;;;;;;;41.38;24.98;;;;;;;11.08;56.61;100767.63;5050744;28;20401;-52
2021/10/29 06:30:05;;;;;;;18.13;11.05;;;;;;;11.90;55.02;100771.22;5051995;28;20032;-51
2021/10/29 06:32:30;;;;;;;20.88;11.32;;;;;;;12.03;54.57;100766.03;5051799;28;20094;-49
2021/10/29 06:34:56;;;;;;;19.77;10.63;;;;;;;12.03;52.90;100768.72;5052159;28;20457;-51
2021/10/29 06:37:21;;;;;;;19.73;9.82;;;;;;;12.23;52.73;100765.44;5046958;28;20033;-52
2021/10/29 06:39:48;;;;;;;16.08;9.88;;;;;;;12.37;51.62;100771.72;5028485;28;20052;-51
2021/10/29 06:42:29;;;;;;;15.85;9.85;;;;;;;12.65;51.27;100772.59;5030462;28;20425;-48
2021/10/29 07:01:43;;;;;;;17.42;9.50;;;;;;;13.02;49.69;100767.97;5050434;28;20044;-48
2021/10/29 07:42:08;;;;;;;18.67;10.77;;;;;;;15.08;45.72;100767.00;5055690;28;20112;-51
2021/10/29 07:44:37;;;;;;;15.48;9.98;;;;;;;15.12;44.85;100767.44;5053028;28;20029;-50
2021/10/29 07:47:02;;;;;;;16.27;10.57;;;;;;;14.86;46.17;100756.50;5055009;28;20025;-50
2021/10/29 07:49:29;;;;;;;16.27;10.38;;;;;;;14.90;46.13;100759.59;5051030;28;20032;-48
2021/10/29 07:51:55;;;;;;;17.85;9.95;;;;;;;15.17;46.06;100754.19;5056615;28;20055;-49
2021/10/29 07:54:22;;;;;;;18.73;10.35;;;;;;;15.32;45.03;100753.97;5053547;28;20107;-51
2021/10/29 07:56:48;;;;;;;17.08;10.27;;;;;;;16.66;43.07;100752.28;5054842;28;20032;-49
2021/10/29 07:59:14;;;;;;;15.88;10.32;;;;;;;16.35;42.97;100747.75;5051354;28;20082;-49
2021/10/29 08:01:40;;;;;;;17.52;11.13;;;;;;;16.23;43.45;100747.63;5049443;28;20029;-50
2021/10/29 08:04:06;;;;;;;19.27;10.85;;;;;;;15.97;43.71;100757.47;5049379;28;20079;-51
2021/10/29 08:06:32;;;;;;;19.70;10.55;;;;;;;15.76;44.25;100744.34;5049364;28;20090;-48
2021/10/29 08:09:00;;;;;;;17.45;11.10;;;;;;;15.66;43.97;100749.31;5052166;28;20032;-49
2021/10/29 08:11:25;;;;;;;19.77;10.38;;;;;;;15.79;44.18;100743.94;5068917;28;20487;-50
2021/10/29 08:13:51;;;;;;;15.93;10.68;;;;;;;15.79;43.77;100738.56;5049436;28;20029;-53
2021/10/29 08:16:16;;;;;;;14.40;10.60;;;;;;;15.70;44.12;100735.25;5049579;28;20071;-49
2021/10/29 08:18:45;;;;;;;19.23;10.60;;;;;;;15.69;44.81;100738.16;5049466;28;20380;-48
2021/10/29 08:21:13;;;;;;;16.50;10.52;;;;;;;15.55;44.92;100737.38;5048917;28;20028;-51
2021/10/29 08:23:41;;;;;;;15.00;9.85;;;;;;;15.71;44.78;100738.78;5049175;28;20475;-50
2021/10/29 08:26:08;;;;;;;16.95;10.57;;;;;;;15.58;44.78;100735.09;5048981;28;20037;-48
2021/10/29 08:28:33;;;;;;;15.90;10.27;;;;;;;15.60;44.51;100734.91;5047984;28;20033;-49
2021/10/29 08:30:59;;;;;;;18.23;10.80;;;;;;;15.79;44.57;100730.53;5047232;28;20032;-48
2021/10/29 08:33:25;;;;;;;17.38;10.43;;;;;;;15.32;45.57;100719.91;5048446;28;20045;-50
2021/10/29 08:35:51;;;;;;;17.45;10.98;;;;;;;15.71;45.52;100734.25;5047994;28;20036;-49
2021/10/29 08:38:18;;;;;;;15.05;10.88;;;;;;;15.80;44.26;100721.41;5048343;28;20116;-49
2021/10/29 08:40:44;;;;;;;20.48;10.52;;;;;;;17.01;42.95;100722.22;5048392;28;20021;-49
2021/10/29 08:43:10;;;;;;;15.23;10.85;;;;;;;16.72;42.64;100723.72;5047348;28;20024;-50
2021/10/29 08:45:35;;;;;;;18.70;10.98;;;;;;;16.56;42.81;100717.84;5048593;28;20032;-49
2021/10/29 08:48:01;;;;;;;19.33;11.30;;;;;;;16.40;43.63;100723.75;5047795;28;20028;-50
2021/10/29 08:50:26;;;;;;;15.73;10.80;;;;;;;16.15;44.01;100711.09;5047452;28;20029;-49
2021/10/29 08:52:52;;;;;;;20.05;10.68;;;;;;;16.42;43.62;100719.78;5048172;28;20039;-49
2021/10/29 08:55:23;;;;;;;17.33;10.48;;;;;;;16.40;44.02;100719.19;5049090;28;20025;-49
2021/10/29 08:57:50;;;;;;;19.30;11.60;;;;;;;16.31;44.20;100719.69;5049240;28;20094;-48
2021/10/29 09:00:25;;;;;;;19.30;11.20;;;;;;;16.26;43.39;100709.59;5049284;28;20108;-48
2021/10/29 09:03:00;;;;;;;17.17;11.48;;;;;;;16.41;43.53;100710.09;5049035;28;20108;-50
2021/10/29 09:05:33;;;;;;;16.50;11.05;;;;;;;16.61;43.03;100709.94;5048523;28;20527;-50
2021/10/29 09:08:18;;;;;;;17.42;11.23;;;;;;;17.48;41.19;100713.66;5048722;28;20037;-50
2021/10/29 09:32:37;;;;;;;15.48;10.75;;;;;;;16.58;43.36;100683.50;5047151;28;20130;-49
2021/10/29 09:35:09;;;;;;;16.48;11.13;;;;;;;16.78;43.91;100679.81;5046724;28;20037;-51
2021/10/29 09:37:59;;;;;;;18.92;11.23;;;;;;;17.61;41.55;100677.66;5031452;28;20020;-48
2021/10/29 09:40:29;;;;;;;16.63;10.95;;;;;;;17.12;42.99;100675.75;5047525;28;20024;-50
2021/10/29 09:42:58;;;;;;;19.00;11.07;;;;;;;17.25;42.85;100677.50;5047322;28;20044;-50
2021/10/29 09:45:27;;;;;;;19.92;11.63;;;;;;;17.26;42.61;100673.75;5045846;28;20469;-48
2021/10/29 09:48:15;;;;;;;18.17;11.00;;;;;;;16.88;42.86;100669.41;5046869;28;20033;-50
2021/10/29 09:50:51;;;;;;;16.40;10.32;;;;;;;16.82;42.03;100670.28;5047145;28;20129;-47
2021/10/29 09:53:45;;;;;;;19.95;11.57;;;;;;;16.55;43.08;100661.63;5047503;28;20079;-48
2021/10/29 09:58:58;;;;;;;16.92;10.93;;;;;;;17.02;43.13;100658.50;5047865;28;20028;-48
2021/10/29 10:01:24;;;;;;;18.55;10.13;;;;;;;16.95;42.59;100650.53;5047381;28;20094;-48
2021/10/29 10:03:51;;;;;;;16.23;10.98;;;;;;;16.94;42.43;100654.25;5047634;28;20118;-49
2021/10/29 10:06:19;;;;;;;17.75;11.00;;;;;;;16.67;42.96;100646.41;5047709;28;20079;-48
2021/10/29 10:08:45;;;;;;;20.73;11.40;;;;;;;16.56;43.51;100641.78;5048609;28;20046;-50
2021/10/29 10:11:11;;;;;;;18.85;11.15;;;;;;;16.65;43.06;100643.13;5067588;28;20024;-48
2021/10/29 10:13:38;;;;;;;16.77;10.90;;;;;;;16.96;42.91;100634.16;5069390;28;20464;-50
2021/10/29 10:16:05;;;;;;;16.08;10.25;;;;;;;16.95;42.82;100635.22;5070860;28;20021;-49
2021/10/29 10:18:31;;;;;;;16.88;11.02;;;;;;;18.10;40.88;100638.06;5069552;28;20044;-49
2021/10/29 10:20:58;;;;;;;20.40;12.02;;;;;;;17.73;40.96;100628.22;5071327;28;20031;-49
2021/10/29 10:23:34;;;;;;;19.83;11.38;;;;;;;17.36;41.13;100630.16;5070080;28;20021;-48
2021/10/29 10:46:20;;;;;;;10.77;7.60;;;;;;;17.51;40.29;100600.97;5049976;28;20550;-49
2021/10/29 10:49:13;;;;;;;14.02;7.97;;;;;;;17.44;40.39;100605.66;5032647;28;20489;-48
2021/10/29 10:51:43;;;;;;;10.75;6.35;;;;;;;17.48;39.37;100596.06;5049712;28;20041;-48
2021/10/29 10:54:24;;;;;;;9.40;6.32;;;;;;;17.46;39.87;100597.31;5048886;28;20029;-49
2021/10/29 10:57:21;;;;;;;9.55;6.00;;;;;;;17.33;40.05;100590.28;5034356;28;20412;-49
2021/10/29 11:10:15;;;;;;;8.07;6.15;;;;;;;17.45;37.84;100585.75;5064216;28;20028;-49
2021/10/29 11:12:44;;;;;;;7.25;4.82;;;;;;;17.37;38.08;100578.00;5070440;28;20123;-48
2021/10/29 11:15:13;;;;;;;8.52;5.60;;;;;;;17.11;38.90;100580.00;5070492;28;20051;-48
2021/10/29 11:17:51;;;;;;;9.20;5.80;;;;;;;17.35;38.29;100574.72;5071305;28;20107;-48
2021/10/29 11:20:39;;;;;;;8.55;6.72;;;;;;;17.52;37.06;100573.03;5069762;28;20106;-48
2021/10/29 11:23:22;;;;;;;8.45;5.65;;;;;;;17.57;37.77;100567.78;5050436;28;20090;-48
2021/10/29 11:26:04;;;;;;;8.20;5.13;;;;;;;17.60;37.93;100563.81;5050682;28;20413;-47
2021/10/29 11:28:38;;;;;;;7.43;5.35;;;;;;;17.50;39.16;100561.69;5050315;28;20037;-47
2021/10/29 11:31:04;;;;;;;8.75;5.10;;;;;;;17.52;37.30;100553.38;5050737;28;20494;-50
2021/10/29 11:33:30;;;;;;;7.30;4.43;;;;;;;17.20;37.88;100556.31;5050245;28;20059;-47
2021/10/29 11:36:10;;;;;;;5.28;3.63;;;;;;;17.18;37.38;100544.97;5048613;28;20024;-50
2021/10/29 11:38:37;;;;;;;4.97;3.08;;;;;;;17.36;36.31;100542.22;5051077;28;20032;-49
2021/10/29 11:41:06;;;;;;;5.28;3.33;;;;;;;17.49;36.19;100543.06;5051269;28;20052;-49
2021/10/29 11:43:32;;;;;;;11.52;7.93;;;;;;;17.44;36.57;100551.84;5051370;28;20033;-49
2021/10/29 11:45:59;;;;;;;15.80;11.60;;;;;;;17.33;36.22;100537.28;5049592;28;20397;-50
2021/10/29 11:48:25;;;;;;;17.08;11.82;;;;;;;17.89;35.86;100540.59;5050476;28;20021;-48
2021/10/29 11:51:06;;;;;;;9.32;7.07;;;;;;;17.78;37.02;100547.59;5050689;28;20444;-49
2021/10/29 11:53:35;;;;;;;6.60;4.65;;;;;;;17.58;35.90;100534.44;5050212;28;20029;-52
2021/10/29 11:56:10;;;;;;;6.43;3.33;;;;;;;17.23;34.66;100528.97;5051029;28;20044;-48
2021/10/29 12:01:52;;;;;;;6.32;3.25;;;;;;;17.59;35.42;100533.41;5048527;28;20036;-48
2021/10/29 12:09:03;;;;;;;8.80;5.63;;;;;;;17.75;32.84;100518.44;5049853;28;20124;-50
2021/10/29 12:11:29;;;;;;;5.35;3.95;;;;;;;17.97;32.99;100524.13;5048686;28;20025;-49
2021/10/29 12:13:55;;;;;;;4.75;3.92;;;;;;;17.88;34.25;100509.38;5049737;28;20119;-48
2021/10/29 12:16:24;;;;;;;6.47;3.97;;;;;;;18.30;32.31;100511.13;5031361;28;20540;-48
2021/10/29 12:18:57;;;;;;;5.70;2.90;;;;;;;18.15;33.02;100501.63;5049518;28;20028;-52
2021/10/29 12:21:24;;;;;;;4.53;3.00;;;;;;;17.98;32.77;100509.59;5049456;28;20466;-48
2021/10/29 12:23:51;;;;;;;5.70;3.13;;;;;;;17.72;34.06;100497.34;5049304;28;20545;-49
2021/10/29 12:26:22;;;;;;;5.63;3.60;;;;;;;17.91;33.94;100505.38;5049611;28;20028;-48
2021/10/29 12:28:50;;;;;;;6.00;3.75;;;;;;;18.14;33.67;100507.25;5048085;28;20036;-47
2021/10/29 12:31:49;;;;;;;5.60;3.50;;;;;;;18.12;33.05;100493.19;5049432;28;20602;-47
2021/10/29 13:03:59;;;;;;;7.55;5.22;;;;;;;17.88;33.26;100476.25;5049364;28;20523;-49
2021/10/29 13:06:49;;;;;;;10.18;5.35;;;;;;;18.07;32.42;100471.56;5048248;28;20086;-48
2021/10/29 13:09:27;;;;;;;7.50;4.43;;;;;;;17.90;33.76;100477.63;5045887;28;20125;-48
2021/10/29 13:11:56;;;;;;;6.65;4.35;;;;;;;17.50;35.39;100480.97;5048962;28;20051;-49
2021/10/29 13:14:29;;;;;;;6.95;4.75;;;;;;;17.83;34.87;100476.09;5048768;28;20439;-50
2021/10/29 13:16:56;;;;;;;6.53;4.45;;;;;;;18.38;33.08;100464.13;5048665;28;20036;-49
2021/10/29 13:19:34;;;;;;;7.72;5.53;;;;;;;18.13;33.06;100474.13;5048676;28;20087;-51
2021/10/29 13:25:21;;;;;;;6.70;4.70;;;;;;;18.90;32.22;100473.00;5048882;28;20056;-49
2021/10/29 13:35:26;;;;;;;10.93;4.30;;;;;;;17.90;32.85;100474.94;5048805;28;20503;-50
2021/10/29 13:38:18;;;;;;;5.55;3.60;;;;;;;18.09;32.38;100469.44;5048365;28;20028;-47
2021/10/29 14:02:47;;;;;;;5.18;2.83;;;;;;;17.02;32.75;100462.22;5051315;28;20017;-48
2021/10/29 14:29:43;;;;;;;3.83;2.72;;;;;;;17.04;33.55;100460.97;5051558;28;20032;-50
2021/10/29 14:34:57;;;;;;;8.85;2.75;;;;;;;17.20;33.21;100448.72;5040323;28;20096;-50
2021/10/29 14:44:59;;;;;;;4.38;2.92;;;;;;;16.85;33.41;100440.53;5051510;28;20048;-51
2021/10/29 14:47:34;;;;;;;4.15;2.80;;;;;;;16.59;34.08;100443.31;5051608;28;20504;-52
2021/10/29 14:53:17;;;;;;;4.15;2.60;;;;;;;16.91;33.53;100456.59;5051676;28;20094;-48
2021/10/29 15:45:42;;;;;;;11.25;4.70;;;;;;;15.30;39.40;100466.44;5050899;28;20122;-53
2021/10/29 15:48:28;;;;;;;11.68;4.80;;;;;;;15.09;40.06;100468.41;5051308;28;20036;-49
2021/10/29 15:50:54;;;;;;;9.35;5.07;;;;;;;15.12;39.33;100468.00;5050623;28;20063;-48
2021/10/29 15:53:19;;;;;;;11.05;4.82;;;;;;;15.74;38.26;100465.50;5050306;28;20029;-49
2021/10/29 15:55:49;;;;;;;9.48;4.80;;;;;;;14.99;39.82;100468.88;5050728;28;20025;-48
2021/10/29 16:17:20;;;;;;;15.65;7.60;;;;;;;13.92;43.55;100489.81;5055613;28;20052;-53
2021/10/29 16:19:46;;;;;;;11.25;6.90;;;;;;;14.80;41.75;100486.72;5052232;28;20477;-50